sensor_id;sensor_type;location;lat;lon;timestamp;pressure;altitude;pressure_sealevel;temperature;humidity
70027;BME280;57506;50.092;15.804;2024-02-21T00:00:17;99911.81;;;5.44;100.00
70027;BME280;57506;50.092;15.804;2024-02-21T00:02:42;99929.00;;;5.51;100.00
70027;BME280;57506;50.092;15.804;2024-02-21T00:05:08;99901.16;;;5.34;100.00
70027;BME280;57506;50.092;15.804;2024-02-21T00:07:33;99911.41;;;5.39;100.00
70027;BME280;57506;50.092;15.804;2024-02-21T00:09:59;99904.53;;;5.26;100.00
70027;BME280;57506;50.092;15.804;2024-02-21T00:12:25;99911.00;;;5.34;100.00
70027;BME280;57506;50.092;15.804;2024-02-21T00:14:51;99885.53;;;5.20;100.00
70027;BME280;57506;50.092;15.804;2024-02-21T00:17:17;99904.97;;;5.32;100.00
70027;BME280;57506;50.092;15.804;2024-02-21T00:19:42;99906.22;;;5.27;100.00
70027;BME280;57506;50.092;15.804;2024-02-21T00:22:08;99888.06;;;5.21;100.00
70027;BME280;57506;50.092;15.804;2024-02-21T00:24:33;99911.16;;;5.32;100.00
70027;BME280;57506;50.092;15.804;2024-02-21T00:26:59;99889.91;;;5.21;100.00
70027;BME280;57506;50.092;15.804;2024-02-21T00:29:25;99891.44;;;5.23;100.00
70027;BME280;57506;50.092;15.804;2024-02-21T00:31:51;99900.59;;;5.31;100.00
70027;BME280;57506;50.092;15.804;2024-02-21T00:34:16;99884.84;;;5.27;100.00
70027;BME280;57506;50.092;15.804;2024-02-21T00:36:42;99894.53;;;5.38;100.00
70027;BME280;57506;50.092;15.804;2024-02-21T00:39:07;99890.72;;;5.41;100.00
70027;BME280;57506;50.092;15.804;2024-02-21T00:41:33;99871.63;;;5.36;100.00
70027;BME280;57506;50.092;15.804;2024-02-21T00:43:58;99870.91;;;5.34;100.00
70027;BME280;57506;50.092;15.804;2024-02-21T00:46:24;99859.81;;;5.28;100.00
70027;BME280;57506;50.092;15.804;2024-02-21T00:48:49;99841.28;;;5.17;100.00
70027;BME280;57506;50.092;15.804;2024-02-21T00:51:16;99880.16;;;5.49;100.00
70027;BME280;57506;50.092;15.804;2024-02-21T00:53:42;99878.63;;;5.46;100.00
70027;BME280;57506;50.092;15.804;2024-02-21T00:56:08;99840.53;;;5.25;100.00
70027;BME280;57506;50.092;15.804;2024-02-21T00:58:33;99873.00;;;5.49;100.00
70027;BME280;57506;50.092;15.804;2024-02-21T01:01:00;99848.13;;;5.30;100.00
70027;BME280;57506;50.092;15.804;2024-02-21T01:03:26;99852.91;;;5.36;100.00
70027;BME280;57506;50.092;15.804;2024-02-21T01:05:51;99854.75;;;5.35;100.00
70027;BME280;57506;50.092;15.804;2024-02-21T01:08:17;99866.53;;;5.42;100.00
70027;BME280;57506;50.092;15.804;2024-02-21T01:10:43;99853.59;;;5.38;100.00
70027;BME280;57506;50.092;15.804;2024-02-21T01:13:08;99857.50;;;5.43;100.00
70027;BME280;57506;50.092;15.804;2024-02-21T01:15:34;99861.97;;;5.52;100.00
70027;BME280;57506;50.092;15.804;2024-02-21T01:18:01;99848.09;;;5.39;100.00
70027;BME280;57506;50.092;15.804;2024-02-21T01:20:26;99862.28;;;5.49;100.00
70027;BME280;57506;50.092;15.804;2024-02-21T01:22:52;99861.25;;;5.60;100.00
70027;BME280;57506;50.092;15.804;2024-02-21T01:25:17;99867.88;;;5.56;100.00
70027;BME280;57506;50.092;15.804;2024-02-21T01:27:43;99843.69;;;5.57;100.00
70027;BME280;57506;50.092;15.804;2024-02-21T01:30:09;99833.84;;;5.58;100.00
70027;BME280;57506;50.092;15.804;2024-02-21T01:32:36;99857.47;;;5.62;100.00
70027;BME280;57506;50.092;15.804;2024-02-21T01:35:01;99850.47;;;5.52;100.00
70027;BME280;57506;50.092;15.804;2024-02-21T01:37:27;99843.44;;;5.51;100.00
70027;BME280;57506;50.092;15.804;2024-02-21T01:39:53;99821.50;;;5.38;100.00
70027;BME280;57506;50.092;15.804;2024-02-21T01:42:18;99837.69;;;5.46;100.00
70027;BME280;57506;50.092;15.804;2024-02-21T01:44:44;99844.00;;;5.45;100.00
70027;BME280;57506;50.092;15.804;2024-02-21T01:47:10;99805.25;;;5.21;100.00
70027;BME280;57506;50.092;15.804;2024-02-21T01:49:36;99819.81;;;5.46;100.00
70027;BME280;57506;50.092;15.804;2024-02-21T01:52:02;99807.06;;;5.31;100.00
70027;BME280;57506;50.092;15.804;2024-02-21T01:54:28;99817.56;;;5.42;100.00
70027;BME280;57506;50.092;15.804;2024-02-21T01:56:54;99809.97;;;5.47;100.00
70027;BME280;57506;50.092;15.804;2024-02-21T01:59:21;99815.72;;;5.52;100.00
70027;BME280;57506;50.092;15.804;2024-02-21T02:01:47;99800.44;;;5.35;100.00
70027;BME280;57506;50.092;15.804;2024-02-21T02:04:13;99813.34;;;5.49;100.00
70027;BME280;57506;50.092;15.804;2024-02-21T02:06:39;99816.38;;;5.54;100.00
70027;BME280;57506;50.092;15.804;2024-02-21T02:09:06;99798.84;;;5.42;100.00
70027;BME280;57506;50.092;15.804;2024-02-21T02:11:32;99807.69;;;5.52;100.00
70027;BME280;57506;50.092;15.804;2024-02-21T02:13:58;99799.41;;;5.45;100.00
70027;BME280;57506;50.092;15.804;2024-02-21T02:16:24;99796.69;;;5.55;100.00
70027;BME280;57506;50.092;15.804;2024-02-21T02:18:49;99797.25;;;5.58;100.00
70027;BME280;57506;50.092;15.804;2024-02-21T02:21:42;99796.13;;;5.61;100.00
70027;BME280;57506;50.092;15.804;2024-02-21T02:24:11;99777.59;;;5.50;100.00
70027;BME280;57506;50.092;15.804;2024-02-21T02:26:39;99771.13;;;5.43;100.00
70027;BME280;57506;50.092;15.804;2024-02-21T02:29:05;99757.38;;;5.38;100.00
70027;BME280;57506;50.092;15.804;2024-02-21T02:31:30;99782.94;;;5.50;100.00
70027;BME280;57506;50.092;15.804;2024-02-21T02:33:56;99774.47;;;5.54;100.00
70027;BME280;57506;50.092;15.804;2024-02-21T02:36:21;99784.72;;;5.59;100.00
70027;BME280;57506;50.092;15.804;2024-02-21T02:38:47;99778.59;;;5.49;100.00
70027;BME280;57506;50.092;15.804;2024-02-21T02:41:12;99773.53;;;5.46;100.00
70027;BME280;57506;50.092;15.804;2024-02-21T02:43:38;99754.31;;;5.33;100.00
70027;BME280;57506;50.092;15.804;2024-02-21T02:46:03;99762.34;;;5.33;100.00
70027;BME280;57506;50.092;15.804;2024-02-21T02:48:29;99776.19;;;5.46;100.00
70027;BME280;57506;50.092;15.804;2024-02-21T02:50:55;99771.72;;;5.37;100.00
70027;BME280;57506;50.092;15.804;2024-02-21T02:53:20;99750.34;;;5.37;100.00
70027;BME280;57506;50.092;15.804;2024-02-21T02:55:46;99762.84;;;5.46;100.00
70027;BME280;57506;50.092;15.804;2024-02-21T02:58:12;99755.09;;;5.43;100.00
70027;BME280;57506;50.092;15.804;2024-02-21T03:00:37;99754.41;;;5.41;100.00
70027;BME280;57506;50.092;15.804;2024-02-21T03:03:04;99748.97;;;5.33;100.00
70027;BME280;57506;50.092;15.804;2024-02-21T03:05:30;99766.22;;;5.48;100.00
70027;BME280;57506;50.092;15.804;2024-02-21T03:07:55;99778.97;;;5.54;100.00
70027;BME280;57506;50.092;15.804;2024-02-21T03:10:21;99767.19;;;5.47;100.00
70027;BME280;57506;50.092;15.804;2024-02-21T03:12:47;99773.94;;;5.51;100.00
70027;BME280;57506;50.092;15.804;2024-02-21T03:15:13;99773.09;;;5.50;100.00
70027;BME280;57506;50.092;15.804;2024-02-21T03:17:40;99773.31;;;5.57;100.00
70027;BME280;57506;50.092;15.804;2024-02-21T03:20:06;99736.59;;;5.32;100.00
70027;BME280;57506;50.092;15.804;2024-02-21T03:22:35;99757.19;;;5.49;100.00
70027;BME280;57506;50.092;15.804;2024-02-21T03:25:01;99761.84;;;5.47;100.00
70027;BME280;57506;50.092;15.804;2024-02-21T03:27:27;99725.34;;;5.28;100.00
70027;BME280;57506;50.092;15.804;2024-02-21T03:29:52;99721.41;;;5.32;100.00
70027;BME280;57506;50.092;15.804;2024-02-21T03:32:18;99731.03;;;5.43;100.00
70027;BME280;57506;50.092;15.804;2024-02-21T03:34:43;99750.81;;;5.59;100.00
70027;BME280;57506;50.092;15.804;2024-02-21T03:37:09;99749.41;;;5.55;100.00
70027;BME280;57506;50.092;15.804;2024-02-21T03:39:34;99754.22;;;5.52;100.00
70027;BME280;57506;50.092;15.804;2024-02-21T03:42:00;99749.97;;;5.59;100.00
70027;BME280;57506;50.092;15.804;2024-02-21T03:44:30;99724.13;;;5.50;100.00
70027;BME280;57506;50.092;15.804;2024-02-21T03:46:56;99733.38;;;5.55;100.00
70027;BME280;57506;50.092;15.804;2024-02-21T03:49:21;99732.44;;;5.47;100.00
70027;BME280;57506;50.092;15.804;2024-02-21T03:51:47;99735.13;;;5.47;100.00
70027;BME280;57506;50.092;15.804;2024-02-21T03:54:13;99735.19;;;5.55;100.00
70027;BME280;57506;50.092;15.804;2024-02-21T03:56:39;99744.53;;;5.51;100.00
70027;BME280;57506;50.092;15.804;2024-02-21T03:59:07;99745.41;;;5.42;100.00
70027;BME280;57506;50.092;15.804;2024-02-21T04:01:36;99759.31;;;5.45;100.00
70027;BME280;57506;50.092;15.804;2024-02-21T04:04:02;99753.81;;;5.47;100.00
70027;BME280;57506;50.092;15.804;2024-02-21T04:06:28;99749.50;;;5.36;100.00
70027;BME280;57506;50.092;15.804;2024-02-21T04:08:54;99756.28;;;5.31;100.00
70027;BME280;57506;50.092;15.804;2024-02-21T04:11:19;99745.19;;;5.25;100.00
70027;BME280;57506;50.092;15.804;2024-02-21T04:13:45;99756.28;;;5.31;100.00
70027;BME280;57506;50.092;15.804;2024-02-21T04:16:14;99732.44;;;5.19;100.00
70027;BME280;57506;50.092;15.804;2024-02-21T04:18:40;99734.50;;;5.25;100.00
70027;BME280;57506;50.092;15.804;2024-02-21T04:21:05;99749.25;;;5.30;100.00
70027;BME280;57506;50.092;15.804;2024-02-21T04:23:31;99724.69;;;5.16;100.00
70027;BME280;57506;50.092;15.804;2024-02-21T04:25:56;99738.84;;;5.26;100.00
70027;BME280;57506;50.092;15.804;2024-02-21T04:28:22;99741.94;;;5.32;100.00
70027;BME280;57506;50.092;15.804;2024-02-21T04:30:47;99738.44;;;5.31;100.00
70027;BME280;57506;50.092;15.804;2024-02-21T04:33:13;99709.06;;;5.21;100.00
70027;BME280;57506;50.092;15.804;2024-02-21T04:35:38;99727.09;;;5.47;100.00
70027;BME280;57506;50.092;15.804;2024-02-21T04:38:05;99731.16;;;5.51;100.00
70027;BME280;57506;50.092;15.804;2024-02-21T04:40:30;99714.31;;;5.41;100.00
70027;BME280;57506;50.092;15.804;2024-02-21T04:42:57;99707.00;;;5.43;100.00
70027;BME280;57506;50.092;15.804;2024-02-21T04:45:22;99692.94;;;5.41;100.00
70027;BME280;57506;50.092;15.804;2024-02-21T04:47:48;99719.31;;;5.53;100.00
70027;BME280;57506;50.092;15.804;2024-02-21T04:50:14;99713.81;;;5.55;100.00
70027;BME280;57506;50.092;15.804;2024-02-21T04:52:39;99704.31;;;5.43;100.00
70027;BME280;57506;50.092;15.804;2024-02-21T04:55:05;99720.41;;;5.60;100.00
70027;BME280;57506;50.092;15.804;2024-02-21T04:57:52;99710.44;;;5.53;100.00
70027;BME280;57506;50.092;15.804;2024-02-21T05:00:18;99695.72;;;5.49;100.00
70027;BME280;57506;50.092;15.804;2024-02-21T05:02:44;99649.69;;;5.27;100.00
70027;BME280;57506;50.092;15.804;2024-02-21T05:05:09;99641.94;;;5.34;100.00
70027;BME280;57506;50.092;15.804;2024-02-21T05:07:35;99675.53;;;5.54;100.00
70027;BME280;57506;50.092;15.804;2024-02-21T05:10:01;99650.56;;;5.46;100.00
70027;BME280;57506;50.092;15.804;2024-02-21T05:12:26;99621.97;;;5.28;100.00
70027;BME280;57506;50.092;15.804;2024-02-21T05:14:52;99659.66;;;5.53;100.00
70027;BME280;57506;50.092;15.804;2024-02-21T05:17:17;99652.31;;;5.55;100.00
70027;BME280;57506;50.092;15.804;2024-02-21T05:19:43;99638.50;;;5.42;100.00
70027;BME280;57506;50.092;15.804;2024-02-21T05:22:08;99648.44;;;5.49;100.00
70027;BME280;57506;50.092;15.804;2024-02-21T05:24:34;99629.47;;;5.43;100.00
70027;BME280;57506;50.092;15.804;2024-02-21T05:26:59;99667.66;;;5.80;100.00
70027;BME280;57506;50.092;15.804;2024-02-21T05:29:25;99629.88;;;5.48;100.00
70027;BME280;57506;50.092;15.804;2024-02-21T05:34:16;99671.63;;;5.76;100.00
70027;BME280;57506;50.092;15.804;2024-02-21T05:36:42;99671.31;;;5.79;100.00
70027;BME280;57506;50.092;15.804;2024-02-21T05:39:07;99643.56;;;5.62;100.00
70027;BME280;57506;50.092;15.804;2024-02-21T05:41:33;99650.97;;;5.69;100.00
70027;BME280;57506;50.092;15.804;2024-02-21T05:43:59;99640.28;;;5.51;100.00
70027;BME280;57506;50.092;15.804;2024-02-21T05:46:25;99647.31;;;5.52;100.00
70027;BME280;57506;50.092;15.804;2024-02-21T05:48:50;99636.50;;;5.44;100.00
70027;BME280;57506;50.092;15.804;2024-02-21T05:51:16;99639.47;;;5.41;100.00
70027;BME280;57506;50.092;15.804;2024-02-21T05:53:41;99659.66;;;5.53;100.00
70027;BME280;57506;50.092;15.804;2024-02-21T05:56:11;99632.25;;;5.51;100.00
70027;BME280;57506;50.092;15.804;2024-02-21T05:58:37;99683.84;;;5.79;100.00
70027;BME280;57506;50.092;15.804;2024-02-21T06:01:02;99681.81;;;5.90;100.00
70027;BME280;57506;50.092;15.804;2024-02-21T06:03:29;99691.06;;;5.96;100.00
70027;BME280;57506;50.092;15.804;2024-02-21T06:05:55;99673.84;;;5.81;100.00
70027;BME280;57506;50.092;15.804;2024-02-21T06:08:20;99682.34;;;5.94;100.00
70027;BME280;57506;50.092;15.804;2024-02-21T06:10:46;99691.53;;;5.91;100.00
70027;BME280;57506;50.092;15.804;2024-02-21T06:13:13;99687.44;;;5.87;100.00
70027;BME280;57506;50.092;15.804;2024-02-21T06:15:39;99650.81;;;5.70;100.00
70027;BME280;57506;50.092;15.804;2024-02-21T06:18:05;99679.75;;;5.84;100.00
70027;BME280;57506;50.092;15.804;2024-02-21T06:20:30;99691.22;;;5.94;100.00
70027;BME280;57506;50.092;15.804;2024-02-21T06:22:55;99687.25;;;5.99;100.00
70027;BME280;57506;50.092;15.804;2024-02-21T06:25:21;99678.00;;;5.93;100.00
70027;BME280;57506;50.092;15.804;2024-02-21T06:27:46;99694.97;;;6.02;100.00
70027;BME280;57506;50.092;15.804;2024-02-21T06:30:12;99686.47;;;6.06;100.00
70027;BME280;57506;50.092;15.804;2024-02-21T06:32:37;99698.72;;;6.09;100.00
70027;BME280;57506;50.092;15.804;2024-02-21T06:35:04;99688.63;;;6.03;100.00
70027;BME280;57506;50.092;15.804;2024-02-21T06:37:30;99695.09;;;6.18;100.00
70027;BME280;57506;50.092;15.804;2024-02-21T06:39:57;99700.56;;;6.26;100.00
70027;BME280;57506;50.092;15.804;2024-02-21T06:42:24;99689.00;;;6.25;100.00
70027;BME280;57506;50.092;15.804;2024-02-21T06:45:10;99705.81;;;6.36;100.00
70027;BME280;57506;50.092;15.804;2024-02-21T06:47:58;99642.47;;;6.01;100.00
70027;BME280;57506;50.092;15.804;2024-02-21T06:50:23;99652.94;;;6.12;100.00
70027;BME280;57506;50.092;15.804;2024-02-21T06:52:49;99673.19;;;6.32;100.00
70027;BME280;57506;50.092;15.804;2024-02-21T06:55:14;99699.97;;;6.58;100.00
70027;BME280;57506;50.092;15.804;2024-02-21T06:57:40;99670.13;;;6.53;100.00
70027;BME280;57506;50.092;15.804;2024-02-21T07:00:05;99696.41;;;6.75;100.00
70027;BME280;57506;50.092;15.804;2024-02-21T07:02:33;99672.88;;;6.61;100.00
70027;BME280;57506;50.092;15.804;2024-02-21T07:04:59;99698.97;;;6.85;100.00
70027;BME280;57506;50.092;15.804;2024-02-21T07:07:25;99683.25;;;6.82;100.00
70027;BME280;57506;50.092;15.804;2024-02-21T07:09:50;99695.69;;;6.91;100.00
70027;BME280;57506;50.092;15.804;2024-02-21T07:12:16;99683.50;;;6.96;100.00
70027;BME280;57506;50.092;15.804;2024-02-21T07:14:42;99680.66;;;6.98;100.00
70027;BME280;57506;50.092;15.804;2024-02-21T07:17:08;99685.28;;;7.22;100.00
70027;BME280;57506;50.092;15.804;2024-02-21T07:19:35;99697.94;;;7.37;100.00
70027;BME280;57506;50.092;15.804;2024-02-21T07:22:01;99690.63;;;7.56;100.00
70027;BME280;57506;50.092;15.804;2024-02-21T07:24:26;99693.84;;;7.67;100.00
70027;BME280;57506;50.092;15.804;2024-02-21T07:26:52;99632.59;;;7.38;100.00
70027;BME280;57506;50.092;15.804;2024-02-21T07:29:18;99634.31;;;7.56;100.00
70027;BME280;57506;50.092;15.804;2024-02-21T07:31:44;99678.47;;;7.86;100.00
70027;BME280;57506;50.092;15.804;2024-02-21T07:34:10;99681.66;;;7.89;100.00
70027;BME280;57506;50.092;15.804;2024-02-21T07:36:36;99677.66;;;7.93;100.00
70027;BME280;57506;50.092;15.804;2024-02-21T07:39:04;99678.81;;;7.91;100.00
70027;BME280;57506;50.092;15.804;2024-02-21T07:41:30;99672.63;;;7.90;100.00
70027;BME280;57506;50.092;15.804;2024-02-21T07:43:56;99681.34;;;7.92;100.00
70027;BME280;57506;50.092;15.804;2024-02-21T07:46:21;99657.81;;;7.70;100.00
70027;BME280;57506;50.092;15.804;2024-02-21T07:48:48;99664.66;;;7.64;100.00
70027;BME280;57506;50.092;15.804;2024-02-21T07:51:14;99652.75;;;7.59;100.00
70027;BME280;57506;50.092;15.804;2024-02-21T07:53:42;99632.66;;;7.63;100.00
70027;BME280;57506;50.092;15.804;2024-02-21T07:56:14;99622.91;;;7.54;100.00
70027;BME280;57506;50.092;15.804;2024-02-21T07:58:40;99616.00;;;7.43;100.00
70027;BME280;57506;50.092;15.804;2024-02-21T08:01:06;99612.53;;;7.67;100.00
70027;BME280;57506;50.092;15.804;2024-02-21T08:03:32;99622.63;;;7.89;100.00
70027;BME280;57506;50.092;15.804;2024-02-21T08:05:57;99607.53;;;7.88;99.35
70027;BME280;57506;50.092;15.804;2024-02-21T08:08:23;99624.84;;;7.94;99.24
70027;BME280;57506;50.092;15.804;2024-02-21T08:10:50;99608.03;;;7.84;100.00
70027;BME280;57506;50.092;15.804;2024-02-21T08:13:16;99640.41;;;7.98;99.10
70027;BME280;57506;50.092;15.804;2024-02-21T08:15:41;99670.59;;;8.00;99.39
70027;BME280;57506;50.092;15.804;2024-02-21T08:18:08;99644.63;;;7.93;100.00
70027;BME280;57506;50.092;15.804;2024-02-21T08:20:33;99625.66;;;7.86;100.00
70027;BME280;57506;50.092;15.804;2024-02-21T08:22:59;99657.84;;;7.78;99.74
70027;BME280;57506;50.092;15.804;2024-02-21T08:25:25;99616.00;;;7.43;100.00
70027;BME280;57506;50.092;15.804;2024-02-21T08:27:51;99627.78;;;7.58;100.00
70027;BME280;57506;50.092;15.804;2024-02-21T08:30:19;99617.69;;;7.44;100.00
70027;BME280;57506;50.092;15.804;2024-02-21T08:32:45;99663.53;;;7.83;100.00
70027;BME280;57506;50.092;15.804;2024-02-21T08:35:11;99591.69;;;7.28;100.00
70027;BME280;57506;50.092;15.804;2024-02-21T08:37:37;99635.47;;;7.53;100.00
70027;BME280;57506;50.092;15.804;2024-02-21T08:40:03;99599.88;;;7.35;100.00
70027;BME280;57506;50.092;15.804;2024-02-21T08:42:36;99612.66;;;7.41;100.00
70027;BME280;57506;50.092;15.804;2024-02-21T08:45:04;99592.31;;;7.22;100.00
70027;BME280;57506;50.092;15.804;2024-02-21T08:47:29;99631.41;;;7.41;100.00
70027;BME280;57506;50.092;15.804;2024-02-21T08:49:55;99620.53;;;7.43;100.00
70027;BME280;57506;50.092;15.804;2024-02-21T08:52:20;99633.47;;;7.55;100.00
70027;BME280;57506;50.092;15.804;2024-02-21T08:54:46;99638.84;;;7.63;100.00
70027;BME280;57506;50.092;15.804;2024-02-21T08:57:11;99621.09;;;7.70;100.00
70027;BME280;57506;50.092;15.804;2024-02-21T08:59:39;99644.75;;;7.83;100.00
70027;BME280;57506;50.092;15.804;2024-02-21T09:02:05;99648.81;;;7.95;100.00
70027;BME280;57506;50.092;15.804;2024-02-21T09:04:32;99643.78;;;8.08;100.00
70027;BME280;57506;50.092;15.804;2024-02-21T09:06:58;99634.56;;;8.19;100.00
70027;BME280;57506;50.092;15.804;2024-02-21T09:09:24;99622.97;;;8.19;100.00
70027;BME280;57506;50.092;15.804;2024-02-21T09:11:49;99611.25;;;8.12;100.00
70027;BME280;57506;50.092;15.804;2024-02-21T09:14:15;99615.28;;;8.24;100.00
70027;BME280;57506;50.092;15.804;2024-02-21T09:16:41;99600.13;;;8.31;100.00
70027;BME280;57506;50.092;15.804;2024-02-21T09:19:06;99607.91;;;8.42;100.00
70027;BME280;57506;50.092;15.804;2024-02-21T09:21:38;99613.59;;;8.55;100.00
70027;BME280;57506;50.092;15.804;2024-02-21T09:24:05;99612.53;;;8.64;100.00
70027;BME280;57506;50.092;15.804;2024-02-21T09:26:31;99611.19;;;8.68;100.00
70027;BME280;57506;50.092;15.804;2024-02-21T09:28:57;99626.94;;;8.88;100.00
70027;BME280;57506;50.092;15.804;2024-02-21T09:31:22;99627.28;;;8.93;100.00
70027;BME280;57506;50.092;15.804;2024-02-21T09:33:48;99626.78;;;8.89;100.00
70027;BME280;57506;50.092;15.804;2024-02-21T09:36:14;99640.25;;;8.73;100.00
70027;BME280;57506;50.092;15.804;2024-02-21T09:38:40;99642.44;;;8.69;100.00
70027;BME280;57506;50.092;15.804;2024-02-21T09:41:17;99648.28;;;8.81;100.00
70027;BME280;57506;50.092;15.804;2024-02-21T09:43:43;99649.97;;;8.82;100.00
70027;BME280;57506;50.092;15.804;2024-02-21T09:46:25;99639.56;;;8.79;100.00
70027;BME280;57506;50.092;15.804;2024-02-21T09:51:57;99634.81;;;8.97;100.00
70027;BME280;57506;50.092;15.804;2024-02-21T09:54:24;99634.13;;;9.03;100.00
70027;BME280;57506;50.092;15.804;2024-02-21T09:56:50;99644.22;;;9.01;100.00
70027;BME280;57506;50.092;15.804;2024-02-21T09:59:16;99648.06;;;9.07;100.00
70027;BME280;57506;50.092;15.804;2024-02-21T10:01:45;99652.72;;;9.13;100.00
70027;BME280;57506;50.092;15.804;2024-02-21T10:04:12;99625.81;;;9.21;100.00
70027;BME280;57506;50.092;15.804;2024-02-21T10:06:38;99620.16;;;9.08;100.00
70027;BME280;57506;50.092;15.804;2024-02-21T10:09:06;99626.44;;;9.31;100.00
70027;BME280;57506;50.092;15.804;2024-02-21T10:11:31;99620.28;;;9.54;99.49
70027;BME280;57506;50.092;15.804;2024-02-21T10:14:06;99596.50;;;9.65;99.42
70027;BME280;57506;50.092;15.804;2024-02-21T10:16:33;99602.31;;;10.00;96.27
70027;BME280;57506;50.092;15.804;2024-02-21T10:18:59;99625.53;;;10.24;97.25
70027;BME280;57506;50.092;15.804;2024-02-21T10:21:25;99571.22;;;10.12;93.80
70027;BME280;57506;50.092;15.804;2024-02-21T10:23:51;99586.75;;;10.33;93.70
70027;BME280;57506;50.092;15.804;2024-02-21T10:26:20;99590.84;;;10.43;93.52
70027;BME280;57506;50.092;15.804;2024-02-21T10:28:47;99595.81;;;10.69;94.54
70027;BME280;57506;50.092;15.804;2024-02-21T10:31:27;99589.97;;;10.80;91.58
70027;BME280;57506;50.092;15.804;2024-02-21T10:34:02;99588.84;;;10.90;90.24
70027;BME280;57506;50.092;15.804;2024-02-21T10:36:28;99587.44;;;10.79;86.98
70027;BME280;57506;50.092;15.804;2024-02-21T10:38:54;99595.00;;;10.83;88.87
70027;BME280;57506;50.092;15.804;2024-02-21T10:41:20;99585.69;;;10.71;90.59
70027;BME280;57506;50.092;15.804;2024-02-21T10:43:51;99587.25;;;10.66;87.07
70027;BME280;57506;50.092;15.804;2024-02-21T10:46:21;99574.44;;;10.53;86.97
70027;BME280;57506;50.092;15.804;2024-02-21T10:48:48;99574.84;;;10.42;87.71
70027;BME280;57506;50.092;15.804;2024-02-21T10:51:20;99579.41;;;10.56;90.02
70027;BME280;57506;50.092;15.804;2024-02-21T10:56:41;99567.56;;;10.80;85.54
70027;BME280;57506;50.092;15.804;2024-02-21T10:59:07;99547.84;;;10.79;85.84
70027;BME280;57506;50.092;15.804;2024-02-21T11:01:33;99563.09;;;11.02;85.89
70027;BME280;57506;50.092;15.804;2024-02-21T11:04:05;99559.63;;;10.93;85.67
70027;BME280;57506;50.092;15.804;2024-02-21T11:06:32;99529.44;;;10.83;84.75
70027;BME280;57506;50.092;15.804;2024-02-21T11:09:03;99551.34;;;11.09;84.67
70027;BME280;57506;50.092;15.804;2024-02-21T11:11:32;99535.34;;;11.08;85.31
70027;BME280;57506;50.092;15.804;2024-02-21T11:14:25;99516.50;;;10.93;83.00
70027;BME280;57506;50.092;15.804;2024-02-21T11:16:51;99512.50;;;11.04;85.00
70027;BME280;57506;50.092;15.804;2024-02-21T11:19:22;99512.72;;;11.23;83.14
70027;BME280;57506;50.092;15.804;2024-02-21T11:21:49;99518.72;;;11.40;83.14
70027;BME280;57506;50.092;15.804;2024-02-21T11:24:32;99490.28;;;11.23;81.86
70027;BME280;57506;50.092;15.804;2024-02-21T11:29:42;99466.28;;;11.28;82.12
70027;BME280;57506;50.092;15.804;2024-02-21T11:32:14;99490.25;;;11.38;79.41
70027;BME280;57506;50.092;15.804;2024-02-21T11:34:41;99498.03;;;11.47;81.79
70027;BME280;57506;50.092;15.804;2024-02-21T11:37:13;99496.63;;;11.51;82.50
70027;BME280;57506;50.092;15.804;2024-02-21T11:39:42;99502.41;;;11.48;81.52
70027;BME280;57506;50.092;15.804;2024-02-21T11:42:08;99493.28;;;11.49;81.61
70027;BME280;57506;50.092;15.804;2024-02-21T11:44:35;99485.31;;;11.63;80.08
70027;BME280;57506;50.092;15.804;2024-02-21T11:47:03;99472.34;;;11.51;81.53
70027;BME280;57506;50.092;15.804;2024-02-21T11:49:29;99457.16;;;11.29;80.79
70027;BME280;57506;50.092;15.804;2024-02-21T11:52:02;99490.31;;;11.44;84.13
70027;BME280;57506;50.092;15.804;2024-02-21T11:54:31;99447.78;;;11.25;81.23
70027;BME280;57506;50.092;15.804;2024-02-21T11:56:56;99458.31;;;11.20;80.88
70027;BME280;57506;50.092;15.804;2024-02-21T11:59:22;99462.63;;;11.36;81.30
70027;BME280;57506;50.092;15.804;2024-02-21T12:01:52;99482.94;;;11.32;79.95
70027;BME280;57506;50.092;15.804;2024-02-21T12:04:19;99432.53;;;10.96;79.52
70027;BME280;57506;50.092;15.804;2024-02-21T12:06:45;99442.19;;;11.27;80.10
70027;BME280;57506;50.092;15.804;2024-02-21T12:09:15;99458.84;;;11.51;83.07
70027;BME280;57506;50.092;15.804;2024-02-21T12:11:41;99471.38;;;11.80;80.06
70027;BME280;57506;50.092;15.804;2024-02-21T12:14:07;99439.81;;;11.81;82.16
70027;BME280;57506;50.092;15.804;2024-02-21T12:16:35;99422.16;;;11.14;76.83
70027;BME280;57506;50.092;15.804;2024-02-21T12:19:03;99470.56;;;11.22;78.66
70027;BME280;57506;50.092;15.804;2024-02-21T12:21:33;99458.84;;;11.30;81.06
70027;BME280;57506;50.092;15.804;2024-02-21T12:24:34;99452.66;;;11.15;81.43
70027;BME280;57506;50.092;15.804;2024-02-21T12:27:01;99415.25;;;10.91;80.65
70027;BME280;57506;50.092;15.804;2024-02-21T12:29:29;99420.41;;;10.85;81.10
70027;BME280;57506;50.092;15.804;2024-02-21T12:31:55;99443.00;;;11.06;77.61
70027;BME280;57506;50.092;15.804;2024-02-21T12:34:21;99438.47;;;11.28;80.84
70027;BME280;57506;50.092;15.804;2024-02-21T12:36:47;99420.41;;;11.28;77.61
70027;BME280;57506;50.092;15.804;2024-02-21T12:39:13;99406.66;;;11.44;78.87
70027;BME280;57506;50.092;15.804;2024-02-21T12:41:39;99406.78;;;11.57;79.79
70027;BME280;57506;50.092;15.804;2024-02-21T12:44:06;99411.09;;;11.52;76.68
70027;BME280;57506;50.092;15.804;2024-02-21T12:46:35;99410.19;;;11.66;76.77
70027;BME280;57506;50.092;15.804;2024-02-21T12:49:04;99405.16;;;11.63;75.85
70027;BME280;57506;50.092;15.804;2024-02-21T12:51:31;99396.78;;;11.51;75.25
70027;BME280;57506;50.092;15.804;2024-02-21T12:53:56;99394.13;;;11.37;76.81
70027;BME280;57506;50.092;15.804;2024-02-21T12:56:22;99402.47;;;11.42;77.46
70027;BME280;57506;50.092;15.804;2024-02-21T12:58:48;99377.75;;;11.38;75.38